Terminal Aerodrome Forecast
Issued by NWS

Home | Current Version | Previous Version | Text Only | Print | Product List | Glossary On
Versions: 1 2 3 4 5 6 7 8 9 10 11 12 13 14
000
FTAK31 PAFA 201740
TAFAMC
TAF
PAMC 201740Z 2018/2118 36003KT P6SM VCSH SCT025 OVC040
     FM202100 02010KT P6SM VCSH SCT025 BKN045
     FM210600 32004KT P6SM SCT050 SCT100=

USA.gov is the U.S. government's official web portal to all federal, state and local government web resources and services.